createdAt,value
2018-07-16T15:33:08.837Z,990.38
2018-07-16T15:34:08.828Z,990.39
2018-07-16T15:36:01.718Z,990.37
2018-07-16T15:37:01.717Z,990.43
2018-07-16T15:38:54.619Z,990.38
2018-07-16T15:39:54.614Z,990.37
2018-07-16T15:41:47.519Z,990.43
2018-07-16T15:42:47.521Z,990.39
2018-07-16T15:44:40.425Z,990.40
2018-07-16T15:45:40.425Z,990.37
2018-07-16T15:47:33.353Z,990.31
2018-07-16T15:48:33.404Z,990.31
2018-07-16T15:50:26.266Z,990.29
2018-07-16T15:51:26.268Z,990.28
2018-07-16T15:53:19.175Z,990.36
2018-07-16T15:54:19.172Z,990.32
2018-07-16T15:56:12.109Z,990.33
2018-07-16T15:57:12.119Z,990.34
2018-07-16T15:59:05.015Z,990.37
2018-07-16T16:00:05.017Z,990.37
2018-07-16T16:01:57.967Z,990.34
2018-07-16T16:02:58.007Z,990.37
2018-07-16T16:04:50.905Z,990.40
2018-07-16T16:05:50.873Z,990.34
2018-07-16T16:07:43.785Z,990.31
2018-07-16T16:08:43.783Z,990.31
2018-07-16T16:10:36.741Z,990.31
2018-07-16T16:11:36.708Z,990.35
2018-07-16T16:13:29.628Z,990.34
2018-07-16T16:14:29.629Z,990.37
2018-07-16T16:16:22.552Z,990.33
2018-07-16T16:17:22.548Z,990.36
2018-07-16T16:19:15.468Z,990.32
2018-07-16T16:20:15.460Z,990.32
2018-07-16T16:22:08.418Z,990.34
2018-07-16T16:23:08.428Z,990.35
2018-07-16T16:25:01.286Z,990.32
2018-07-16T16:26:01.292Z,990.37
2018-07-16T16:27:54.267Z,990.32
2018-07-16T16:28:54.256Z,990.30
2018-07-16T16:30:47.190Z,990.30
2018-07-16T16:31:47.193Z,990.35
2018-07-16T16:33:40.108Z,990.32
2018-07-16T16:34:40.108Z,990.28
2018-07-16T16:36:33.061Z,990.29
2018-07-16T16:37:33.032Z,990.31
2018-07-16T16:39:25.950Z,990.27
2018-07-16T16:40:25.955Z,990.22
2018-07-16T16:42:19.032Z,990.21
2018-07-16T16:43:18.864Z,990.23
2018-07-16T16:45:11.777Z,990.24
2018-07-16T16:46:11.779Z,990.24
2018-07-16T16:48:04.716Z,990.25
2018-07-16T16:49:04.737Z,990.25
2018-07-16T16:50:57.601Z,990.26
2018-07-16T16:51:57.610Z,990.24
2018-07-16T16:53:50.525Z,990.21
2018-07-16T16:54:50.539Z,990.20
2018-07-16T16:56:43.442Z,990.21
2018-07-16T16:57:43.475Z,990.19
2018-07-16T16:59:36.380Z,990.20
2018-07-16T17:00:36.406Z,990.24
2018-07-16T17:02:29.317Z,990.28
2018-07-16T17:03:29.291Z,990.24
2018-07-16T17:05:22.202Z,990.25
2018-07-16T17:06:22.205Z,990.25
2018-07-16T17:08:15.127Z,990.22
2018-07-16T17:09:15.129Z,990.26
2018-07-16T17:11:08.039Z,990.22
2018-07-16T17:12:08.044Z,990.21
2018-07-16T17:14:00.953Z,990.21
2018-07-16T17:15:00.952Z,990.21
2018-07-16T17:16:53.862Z,990.16
2018-07-16T17:17:53.869Z,990.19
2018-07-16T17:19:46.785Z,990.22
2018-07-16T17:20:46.786Z,990.21
2018-07-16T17:22:39.690Z,990.26
2018-07-16T17:23:39.731Z,990.22
2018-07-16T17:25:32.613Z,990.23
2018-07-16T17:26:32.664Z,990.20
2018-07-16T17:28:25.520Z,990.26
2018-07-16T17:29:25.535Z,990.25
2018-07-16T17:31:18.506Z,990.23
2018-07-16T17:32:18.448Z,990.26
2018-07-16T17:33:18.459Z,990.27
2018-07-16T17:34:18.467Z,990.28
2018-07-16T17:35:18.473Z,990.31
2018-07-16T17:36:18.487Z,990.32
2018-07-16T17:37:18.501Z,990.30
2018-07-16T17:38:18.552Z,990.31
2018-07-16T17:39:18.523Z,990.31
2018-07-16T17:40:18.589Z,990.33
2018-07-16T17:41:18.541Z,990.33
2018-07-16T17:42:18.551Z,990.34
2018-07-16T17:43:18.565Z,990.37
2018-07-16T17:44:18.575Z,990.30
2018-07-16T17:45:18.586Z,990.32
2018-07-16T17:46:18.596Z,990.35
2018-07-16T17:47:18.608Z,990.34
2018-07-16T17:48:18.621Z,990.33
2018-07-16T17:49:18.629Z,990.33
2018-07-16T17:50:18.639Z,990.34
2018-07-16T17:51:18.649Z,990.32
2018-07-16T17:52:18.661Z,990.29
2018-07-16T17:53:18.791Z,990.32
2018-07-16T17:54:18.681Z,990.31
2018-07-16T17:55:18.693Z,990.31
2018-07-16T17:56:18.710Z,990.31
2018-07-16T17:57:18.720Z,990.31
2018-07-16T17:58:18.734Z,990.32
2018-07-16T17:59:18.738Z,990.32
2018-07-16T18:00:18.751Z,990.34
2018-07-16T18:01:18.824Z,990.32
2018-07-16T18:02:18.788Z,990.32
2018-07-16T18:03:18.778Z,990.31
2018-07-16T18:04:18.786Z,990.31
2018-07-16T18:05:18.809Z,990.35
2018-07-16T18:06:18.814Z,990.40
2018-07-16T18:07:18.821Z,990.43
2018-07-16T18:08:18.837Z,990.38
2018-07-16T18:09:18.844Z,990.41
2018-07-16T18:10:18.845Z,990.39
2018-07-16T18:11:18.861Z,990.34
2018-07-16T18:12:18.884Z,990.40
2018-07-16T18:13:18.906Z,990.39
2018-07-16T18:14:18.894Z,990.41
2018-07-16T18:15:18.904Z,990.39
2018-07-16T18:16:18.931Z,990.42
2018-07-16T18:17:18.922Z,990.41
2018-07-16T18:18:18.939Z,990.43
2018-07-16T18:19:18.946Z,990.41
2018-07-16T18:20:18.961Z,990.43
2018-07-16T18:21:18.975Z,990.40
2018-07-16T18:22:18.972Z,990.44
2018-07-16T18:23:18.991Z,990.41
2018-07-16T18:24:19.011Z,990.43
2018-07-16T18:25:19.012Z,990.43
2018-07-16T18:26:19.023Z,990.46
2018-07-16T18:27:19.043Z,990.48
2018-07-16T18:28:19.046Z,990.44
2018-07-16T18:29:19.054Z,990.50
2018-07-16T18:30:19.065Z,990.48
2018-07-16T18:31:19.077Z,990.47
2018-07-16T18:32:19.085Z,990.48
2018-07-16T18:33:19.099Z,990.49
2018-07-16T18:34:19.105Z,990.52
2018-07-16T18:35:19.144Z,990.50
2018-07-16T18:36:19.128Z,990.49
2018-07-16T18:37:19.136Z,990.49
2018-07-16T18:38:19.152Z,990.49
2018-07-16T18:39:19.158Z,990.51
2018-07-16T18:40:19.167Z,990.54
2018-07-16T18:41:19.177Z,990.51
2018-07-16T18:42:19.190Z,990.53
2018-07-16T18:43:19.200Z,990.53
2018-07-16T18:44:19.207Z,990.54
2018-07-16T18:45:19.212Z,990.56
2018-07-16T18:46:19.228Z,990.55
2018-07-16T18:47:19.262Z,990.57
2018-07-16T18:48:19.247Z,990.60
2018-07-16T18:49:19.262Z,990.59
2018-07-16T18:50:19.268Z,990.62
2018-07-16T18:51:19.280Z,990.58
2018-07-16T18:52:19.289Z,990.61
2018-07-16T18:53:19.301Z,990.63
2018-07-16T18:54:19.315Z,990.62
2018-07-16T18:55:19.368Z,990.59
2018-07-16T18:56:19.333Z,990.62
2018-07-16T18:57:19.341Z,990.60
2018-07-16T18:58:19.347Z,990.67
2018-07-16T18:59:19.357Z,990.69
2018-07-16T19:00:19.368Z,990.72
2018-07-16T19:01:19.390Z,990.70
2018-07-16T19:02:19.392Z,990.73
2018-07-16T19:03:19.399Z,990.73
2018-07-16T19:04:19.449Z,990.79
2018-07-16T19:05:19.420Z,990.79
2018-07-16T19:06:19.433Z,990.76
2018-07-16T19:07:19.450Z,990.77
2018-07-16T19:08:19.452Z,990.75
2018-07-16T19:09:19.461Z,990.78
2018-07-16T19:10:19.470Z,990.77
2018-07-16T19:11:19.485Z,990.81
2018-07-16T19:12:19.494Z,990.77
2018-07-16T19:13:19.502Z,990.82
2018-07-16T19:14:19.511Z,990.84
2018-07-16T19:15:19.522Z,990.79
2018-07-16T19:16:19.534Z,990.78
2018-07-16T19:17:19.545Z,990.83
2018-07-16T19:18:19.552Z,990.82
2018-07-16T19:19:19.560Z,990.84
2018-07-16T19:20:19.579Z,990.86
2018-07-16T19:21:19.598Z,990.88
2018-07-16T19:22:19.602Z,990.89
2018-07-16T19:23:19.602Z,990.87
2018-07-16T19:24:19.628Z,990.88
2018-07-16T19:25:19.665Z,990.89
2018-07-16T19:26:19.633Z,990.91
2018-07-16T19:27:19.653Z,990.88
2018-07-16T19:28:19.655Z,990.91
2018-07-16T19:29:19.663Z,990.93
2018-07-16T19:30:19.673Z,990.94
2018-07-16T19:31:19.684Z,990.95
2018-07-16T19:32:19.695Z,990.95
2018-07-16T19:33:19.709Z,990.92
2018-07-16T19:34:19.732Z,990.94
2018-07-16T19:35:19.727Z,990.91
2018-07-16T19:36:19.734Z,990.93
2018-07-16T19:37:19.744Z,990.94
2018-07-16T19:38:19.754Z,990.98
2018-07-16T19:39:19.824Z,990.99
2018-07-16T19:40:19.784Z,990.99
2018-07-16T19:41:19.785Z,991.02
2018-07-16T19:42:19.800Z,991.04
2018-07-16T19:43:19.804Z,991.05
2018-07-16T19:44:19.813Z,991.05
2018-07-16T19:45:19.830Z,991.04
2018-07-16T19:46:19.834Z,991.06
2018-07-16T19:47:19.846Z,991.06
2018-07-16T19:48:19.862Z,991.08
2018-07-16T19:49:19.866Z,991.06
2018-07-16T19:50:19.879Z,991.10
2018-07-16T19:51:19.886Z,991.14
2018-07-16T19:52:19.893Z,991.14
2018-07-16T19:53:19.904Z,991.13
2018-07-16T19:54:19.914Z,991.13
2018-07-16T19:55:19.930Z,991.14
2018-07-16T19:56:19.937Z,991.12
2018-07-16T19:57:19.945Z,991.14
2018-07-16T19:58:19.954Z,991.13
2018-07-16T19:59:19.964Z,991.14
2018-07-16T20:00:20.038Z,991.18
2018-07-16T20:01:19.991Z,991.15
2018-07-16T20:02:20.007Z,991.18
2018-07-16T20:03:20.003Z,991.20
2018-07-16T20:04:20.016Z,991.20
2018-07-16T20:05:20.027Z,991.21
2018-07-16T20:06:20.038Z,991.22
2018-07-16T20:07:20.180Z,991.23
2018-07-16T20:08:20.083Z,991.25
2018-07-16T20:09:20.127Z,991.26
2018-07-16T20:10:20.077Z,991.27
2018-07-16T20:11:20.085Z,991.27
2018-07-16T20:12:20.094Z,991.26
2018-07-16T20:13:20.150Z,991.26
2018-07-16T20:14:20.123Z,991.25
2018-07-16T20:15:20.206Z,991.29
2018-07-16T20:16:20.143Z,991.27
2018-07-16T20:17:20.146Z,991.27
2018-07-16T20:18:20.156Z,991.33
2018-07-16T20:19:20.165Z,991.30
2018-07-16T20:20:20.272Z,991.31
2018-07-16T20:21:20.255Z,991.35
2018-07-16T20:22:20.206Z,991.34
2018-07-16T20:23:20.210Z,991.33
2018-07-16T20:24:20.216Z,991.34
2018-07-16T20:25:20.223Z,991.34
2018-07-16T20:26:20.234Z,991.32
2018-07-16T20:27:20.245Z,991.30
2018-07-16T20:28:20.254Z,991.29
2018-07-16T20:29:20.264Z,991.30
2018-07-16T20:30:20.276Z,991.29
2018-07-16T20:31:20.287Z,991.33
2018-07-16T20:32:20.302Z,991.35
2018-07-16T20:33:20.301Z,991.36
2018-07-16T20:34:20.314Z,991.36
2018-07-16T20:35:20.320Z,991.36
2018-07-16T20:36:20.367Z,991.41
2018-07-16T20:37:20.341Z,991.40
2018-07-16T20:38:20.353Z,991.43
2018-07-16T20:39:20.443Z,991.44
2018-07-16T20:40:20.370Z,991.41
2018-07-16T20:41:20.380Z,991.43
2018-07-16T20:42:20.389Z,991.43
2018-07-16T20:43:20.406Z,991.44
2018-07-16T20:44:20.403Z,991.44
2018-07-16T20:45:20.422Z,991.44
2018-07-16T20:46:20.428Z,991.43
2018-07-16T20:47:20.436Z,991.46
2018-07-16T20:48:20.447Z,991.47
2018-07-16T20:49:20.456Z,991.49
2018-07-16T20:50:20.459Z,991.50
2018-07-16T20:51:20.480Z,991.48
2018-07-16T20:52:20.484Z,991.52
2018-07-16T20:53:20.493Z,991.49
2018-07-16T20:54:20.500Z,991.50
2018-07-16T20:55:20.522Z,991.49
2018-07-16T20:56:20.521Z,991.48
2018-07-16T20:57:20.537Z,991.52
2018-07-16T20:58:20.540Z,991.48
2018-07-16T20:59:20.544Z,991.52
2018-07-16T21:00:20.569Z,991.56
2018-07-16T21:01:20.564Z,991.48
2018-07-16T21:02:20.586Z,991.53
2018-07-16T21:03:20.587Z,991.52
2018-07-16T21:04:20.595Z,991.54
2018-07-16T21:05:20.599Z,991.56
2018-07-16T21:06:20.610Z,991.60
2018-07-16T21:07:20.641Z,991.64
2018-07-16T21:08:20.622Z,991.62
2018-07-16T21:09:20.639Z,991.68
2018-07-16T21:10:20.648Z,991.70
2018-07-16T21:11:20.662Z,991.67
2018-07-16T21:12:20.671Z,991.67
2018-07-16T21:13:20.669Z,991.69
2018-07-16T21:14:20.683Z,991.72
2018-07-16T21:15:20.693Z,991.66
2018-07-16T21:16:20.703Z,991.70
2018-07-16T21:17:20.779Z,991.71
2018-07-16T21:18:20.719Z,991.71
2018-07-16T21:19:20.833Z,991.71
2018-07-16T21:20:20.739Z,991.70
2018-07-16T21:21:20.747Z,991.74
2018-07-16T21:22:20.756Z,991.70
2018-07-16T21:23:20.757Z,991.66
2018-07-16T21:24:20.880Z,991.70
2018-07-16T21:25:20.784Z,991.69
2018-07-16T21:26:20.796Z,991.70
2018-07-16T21:27:20.804Z,991.68
2018-07-16T21:28:20.812Z,991.67
2018-07-16T21:29:20.822Z,991.69
2018-07-16T21:30:20.832Z,991.71
2018-07-16T21:31:20.842Z,991.69
2018-07-16T21:32:20.846Z,991.71
2018-07-16T21:33:20.857Z,991.68
2018-07-16T21:34:20.866Z,991.73
2018-07-16T21:35:20.873Z,991.71
2018-07-16T21:36:20.883Z,991.71
2018-07-16T21:37:20.890Z,991.73
2018-07-16T21:38:20.911Z,991.75
2018-07-16T21:39:20.977Z,991.73
2018-07-16T21:40:20.996Z,991.71
2018-07-16T21:41:20.939Z,991.73
2018-07-16T21:42:20.937Z,991.72
2018-07-16T21:43:20.956Z,991.74
2018-07-16T21:44:20.976Z,991.73
2018-07-16T21:45:20.957Z,991.75
2018-07-16T21:46:21.012Z,991.76
2018-07-16T21:47:20.980Z,991.74
2018-07-16T21:48:21.042Z,991.68
2018-07-16T21:49:21.001Z,991.68
2018-07-16T21:50:21.030Z,991.67
2018-07-16T21:51:21.408Z,991.68
2018-07-16T21:52:21.025Z,991.67
2018-07-16T21:53:21.034Z,991.66
2018-07-16T21:54:21.044Z,991.70
2018-07-16T21:55:21.049Z,991.69
2018-07-16T21:56:21.059Z,991.73
2018-07-16T21:57:21.066Z,991.71
2018-07-16T21:58:21.088Z,991.73
2018-07-16T21:59:21.083Z,991.76
2018-07-16T22:00:21.105Z,991.74
2018-07-16T22:01:21.112Z,991.78
2018-07-16T22:02:21.125Z,991.76
2018-07-16T22:03:21.120Z,991.75
2018-07-16T22:04:21.133Z,991.74
2018-07-16T22:05:21.142Z,991.72
2018-07-16T22:06:21.146Z,991.71
2018-07-16T22:07:21.148Z,991.70
2018-07-16T22:08:21.220Z,991.74
2018-07-16T22:09:21.175Z,991.74
2018-07-16T22:10:21.178Z,991.79
2018-07-16T22:11:21.189Z,991.78
2018-07-16T22:12:21.198Z,991.78
2018-07-16T22:13:21.211Z,991.82
2018-07-16T22:14:21.213Z,991.84
2018-07-16T22:15:21.222Z,991.85
2018-07-16T22:16:21.231Z,991.89
2018-07-16T22:17:21.239Z,991.85
2018-07-16T22:18:21.288Z,991.87
2018-07-16T22:19:21.259Z,991.89
2018-07-16T22:20:21.268Z,991.89
2018-07-16T22:21:21.273Z,991.88
2018-07-16T22:22:21.571Z,991.88
2018-07-16T22:23:21.299Z,991.91
2018-07-16T22:24:21.325Z,991.89
2018-07-16T22:25:21.385Z,991.87
2018-07-16T22:26:21.319Z,991.89
2018-07-16T22:27:21.323Z,991.90
2018-07-16T22:28:21.330Z,991.89
2018-07-16T22:29:21.339Z,991.90
2018-07-16T22:30:21.344Z,991.90
2018-07-16T22:31:21.353Z,991.89
2018-07-16T22:32:21.363Z,991.91
2018-07-16T22:33:21.371Z,991.92
2018-07-16T22:34:21.379Z,991.90
2018-07-16T22:35:21.387Z,991.90
2018-07-16T22:36:21.398Z,991.93
2018-07-16T22:37:21.403Z,991.93
2018-07-16T22:38:21.413Z,991.93
2018-07-16T22:39:21.421Z,991.94
2018-07-16T22:40:21.429Z,991.94
2018-07-16T22:41:21.435Z,991.99
2018-07-16T22:42:21.435Z,991.97
2018-07-16T22:43:21.498Z,991.99
2018-07-16T22:44:21.462Z,991.98
2018-07-16T22:45:21.469Z,992.00
2018-07-16T22:46:21.477Z,991.98
2018-07-16T22:47:21.484Z,991.97
2018-07-16T22:48:21.497Z,991.98
2018-07-16T22:49:21.507Z,992.02
2018-07-16T22:50:21.509Z,991.99
2018-07-16T22:51:21.518Z,992.04
2018-07-16T22:52:21.532Z,992.01
2018-07-16T22:53:21.534Z,992.01
2018-07-16T22:54:21.540Z,992.01
2018-07-16T22:55:21.550Z,992.03
2018-07-16T22:56:21.561Z,992.00
2018-07-16T22:57:21.569Z,991.96
2018-07-16T22:58:21.578Z,992.00
2018-07-16T22:59:21.584Z,991.93
2018-07-16T23:00:21.593Z,991.96
2018-07-16T23:01:21.602Z,991.97
2018-07-16T23:02:21.611Z,991.97
2018-07-16T23:03:21.617Z,991.93
2018-07-16T23:04:21.632Z,991.96
2018-07-16T23:05:21.640Z,991.94
2018-07-16T23:06:21.657Z,991.97
2018-07-16T23:07:21.652Z,991.99
2018-07-16T23:08:21.659Z,991.98
2018-07-16T23:09:21.669Z,991.96
2018-07-16T23:10:21.676Z,991.99
2018-07-16T23:11:21.684Z,992.04
2018-07-16T23:12:21.693Z,991.99
2018-07-16T23:13:21.701Z,991.98
2018-07-16T23:14:21.711Z,991.93
2018-07-16T23:15:21.717Z,991.95
2018-07-16T23:16:21.726Z,991.95
2018-07-16T23:17:21.734Z,991.97
2018-07-16T23:18:21.745Z,991.96
2018-07-16T23:19:21.752Z,991.98
2018-07-16T23:20:21.762Z,992.03
2018-07-16T23:21:21.769Z,992.02
2018-07-16T23:22:21.777Z,992.02
2018-07-16T23:23:21.784Z,992.00
2018-07-16T23:24:21.793Z,992.04
2018-07-16T23:25:21.801Z,992.01
2018-07-16T23:26:21.809Z,992.05
2018-07-16T23:27:21.820Z,992.05
2018-07-16T23:28:21.829Z,992.06
2018-07-16T23:29:21.835Z,992.07
2018-07-16T23:30:21.842Z,992.07
2018-07-16T23:31:21.854Z,992.08
2018-07-16T23:32:21.859Z,992.07
2018-07-16T23:33:21.869Z,992.06
2018-07-16T23:34:21.876Z,992.07
2018-07-16T23:35:21.886Z,992.05
2018-07-16T23:36:21.895Z,992.03
2018-07-16T23:37:21.902Z,992.02
2018-07-16T23:38:21.908Z,992.03
2018-07-16T23:39:21.916Z,992.02
2018-07-16T23:40:21.926Z,992.02
2018-07-16T23:41:21.934Z,992.05
2018-07-16T23:42:21.942Z,992.05
2018-07-16T23:43:21.951Z,992.07
2018-07-16T23:44:21.959Z,992.07
2018-07-16T23:45:21.968Z,992.07
2018-07-16T23:46:21.975Z,992.06
2018-07-16T23:47:21.984Z,992.06
2018-07-16T23:48:21.995Z,992.04
2018-07-16T23:49:22.001Z,992.04
2018-07-16T23:50:22.069Z,992.03
2018-07-16T23:51:22.017Z,992.03
2018-07-16T23:52:22.025Z,992.04
2018-07-16T23:53:22.034Z,992.05
2018-07-16T23:54:22.042Z,992.03
2018-07-16T23:55:22.051Z,992.05
2018-07-16T23:56:22.058Z,992.06
2018-07-16T23:57:22.068Z,992.09
2018-07-16T23:58:22.075Z,992.08
2018-07-16T23:59:22.084Z,992.04
